Terminal Aerodrome Forecast
Issued by NWS Austin/San Antonio, TX

Current Version | Previous Version | Text Only | Print | Product List | Glossary Off
Versions: 1 2 3 4 5 6 7 8 9 10 11 12

000
FTUS44 KEWX 271100
TAFDRT
TAF
KDRT 271126Z 2712/2812 30004KT P6SM SKC
     FM271500 13009KT P6SM SKC
     FM280200 11006KT P6SM SKC
     FM280900 11006KT P6SM BKN007=

USA.gov is the U.S. government's official web portal to all federal, state and local government web resources and services.